Flight Track Log - Related Links

Times and Time Zones

All times are in EDT time to prevent confusion due to time zone crossing. See the CHQ6088 flight status page for this flight to view local times or setup timezone preferences in your user account.

Time Position Orientation Groundspeed Altitude Reporting Facility
EDT Latitude Longitude Course Direction KTS MPH feet Rate Location/Type
Wed 08:34:23 PM 40.7667 -73.8333 264° West 161 185 1,100  Level New York TRACON
Wed 08:35:23 PM 40.7833 -73.7833 66° East 215 247 3,000 2,000 Climbing New York TRACON
Wed 08:36:23 PM 40.8333 -73.8167 333° Northwest 230 265 5,100 2,150 Climbing New York TRACON
Wed 08:37:00 PM 40.7373 -74.3690 264° West  Level FlightAware Approximate
Wed 08:37:23 PM 40.8667 -73.8833 303° West 257 296 7,300  Level New York TRACON
Wed 08:38:00 PM 40.7273 -74.4958 264° West  Level FlightAware Approximate
Wed 08:38:23 PM 40.8833 -73.9833 282° West 268 308 9,500  Level New York TRACON
Wed 08:39:00 PM 40.7175 -74.6226 264° West  Level FlightAware Approximate
Wed 08:39:17 PM 40.8667 -74.0667 255° West 276 318 11,300  Level New York TRACON
Wed 08:40:17 PM 40.8500 -74.1667 258° West 304 350 12,800 1,476 Climbing New York TRACON
Wed 08:41:23 PM 40.8333 -74.2833 259° West 325 374 14,400 1,314 Climbing New York TRACON
Wed 08:43:47 PM 40.7772 -74.5828 256° West 351 404 17,400 1,294 Climbing New York Center
Wed 08:44:47 PM 40.7594 -74.6806 257° West 351 404 18,800 1,750 Climbing New York Center
Wed 08:45:47 PM 40.7319 -74.8186 255° West 345 397 20,900 1,900 Climbing New York Center
Wed 08:46:47 PM 40.7133 -74.9269 257° West 345 397 22,600 1,550 Climbing New York Center
Wed 08:47:47 PM 40.6906 -75.0433 256° West 340 391 24,000 1,450 Climbing New York Center
Wed 08:48:47 PM 40.6489 -75.1528 243° Southwest 334 384 25,500 1,500 Climbing New York Center
Wed 08:49:47 PM 40.6033 -75.2567 240° Southwest 334 384 27,000 1,500 Climbing New York Center
Wed 08:50:47 PM 40.5536 -75.3625 238° Southwest 334 384 28,500 1,450 Climbing New York Center
Wed 08:51:47 PM 40.5078 -75.4686 240° Southwest 341 392 29,900 1,450 Climbing New York Center
Wed 08:52:47 PM 40.4600 -75.5692 238° Southwest 341 392 31,400 1,500 Climbing New York Center
Wed 08:53:47 PM 40.4142 -75.6694 239° Southwest 335 386 32,900 1,300 Climbing New York Center
Wed 08:54:47 PM 40.3681 -75.7725 240° Southwest 328 377 34,000 550 Climbing New York Center
Wed 08:55:47 PM 40.3156 -75.8803 237° Southwest 338 389 34,000  Level New York Center
Wed 08:56:47 PM 40.2514 -76.0089 237° Southwest 359 413 34,000  Level New York Center
Wed 08:57:47 PM 40.1961 -76.1297 239° Southwest 381 438 34,000 -50 Level New York Center
Wed 08:58:47 PM 40.1428 -76.2450 239° Southwest 381 438 33,900 400 Descending New York Center
Wed 08:59:47 PM 40.0919 -76.3497 238° Southwest 386 444 34,800 1,050 Climbing New York Center
Wed 09:00:47 PM 40.0428 -76.4650 241° Southwest 374 430 36,000 357 Climbing New York Center
Wed 09:02:52 PM 39.9272 -76.7169 239° Southwest 369 425 35,900  Descending Washington Center
Wed 09:03:53 PM 39.8719 -76.8189 235° Southwest 363 418 36,000 50 Climbing Washington Center
Wed 09:04:51 PM 39.8208 -76.9342 240° Southwest 368 423 36,000  Level Washington Center
Wed 09:05:52 PM 39.7675 -77.0492 239° Southwest 368 423 36,000  Level Washington Center
Wed 09:06:53 PM 39.7117 -77.1667 238° Southwest 378 435 36,000  Level Washington Center
Wed 09:07:54 PM 39.6558 -77.2842 238° Southwest 384 442 36,000  Level Washington Center
Wed 09:08:51 PM 39.6022 -77.3986 239° Southwest 384 442 36,000  Level Washington Center
Wed 09:09:52 PM 39.5461 -77.5183 239° Southwest 384 442 36,000  Level Washington Center
Wed 09:10:53 PM 39.4903 -77.6297 237° Southwest 384 442 36,000  Level Washington Center
Wed 09:11:51 PM 39.4383 -77.7414 239° Southwest 384 442 36,000  Level Washington Center
Wed 09:12:52 PM 39.3861 -77.8497 238° Southwest 379 436 36,000  Level Washington Center
Wed 09:13:53 PM 39.3400 -77.9719 244° Southwest 374 430 36,000  Level Washington Center
Wed 09:14:53 PM 39.2897 -78.0908 241° Southwest 374 430 36,000  Level Washington Center
Wed 09:15:51 PM 39.2414 -78.2153 243° Southwest 385 443 36,000  Level Washington Center
Wed 09:16:51 PM 39.1906 -78.3339 241° Southwest 385 443 36,000  Level Washington Center
Wed 09:17:52 PM 39.1419 -78.4578 243° Southwest 385 443 36,000  Level Washington Center
Wed 09:18:53 PM 39.0953 -78.5792 244° Southwest 385 443 36,000  Level Washington Center
Wed 09:19:53 PM 39.0525 -78.7031 246° West 385 443 36,000  Level Washington Center
Wed 09:20:51 PM 39.0097 -78.8267 246° West 380 437 36,000  Level Washington Center
Wed 09:21:50 PM 38.9647 -78.9475 244° Southwest 380 437 36,000  Level Washington Center
Wed 09:22:52 PM 38.9214 -79.0708 246° West 380 437 36,000  Level Washington Center
Wed 09:23:53 PM 38.8825 -79.1892 247° West 374 430 36,000  Level Washington Center
Wed 09:24:54 PM 38.8392 -79.3097 245° Southwest 374 430 36,000  Level Washington Center
Wed 09:25:51 PM 38.7978 -79.4328 247° West 374 430 36,000  Level Washington Center
Wed 09:26:52 PM 38.7608 -79.5453 247° West 374 430 36,000  Level Washington Center
Wed 09:27:53 PM 38.7392 -79.6958 260° West 381 438 36,000  Level Washington Center
Wed 09:28:51 PM 38.7303 -79.8283 265° West 381 438 36,000  Level Washington Center
Wed 09:29:26 PM 38.7236 -79.9014 263° West 381 438 36,000  Level Indianapolis Center
Wed 09:30:28 PM 38.7156 -80.0339 266° West 375 432 36,000 -146 Level Indianapolis Center
Wed 09:31:29 PM 38.7114 -80.1672 268° West 375 432 35,700 -689 Descending Indianapolis Center
Wed 09:32:30 PM 38.7547 -80.2967 293° West 396 456 34,600 -829 Descending Indianapolis Center
Wed 09:33:32 PM 38.8056 -80.4225 297° West 400 460 34,000 -293 Descending Indianapolis Center
Wed 09:34:33 PM 38.8608 -80.5414 301° West 391 450 34,000  Level Indianapolis Center
Wed 09:35:35 PM 38.9228 -80.6528 306° West 386 444 34,000  Level Indianapolis Center
Wed 09:36:36 PM 38.9919 -80.7467 313° West 366 421 34,000  Level Indianapolis Center
Wed 09:37:37 PM 39.0717 -80.8636 311° West 366 421 34,000  Level Indianapolis Center
Wed 09:38:38 PM 39.1058 -80.9842 290° West 363 418 34,000  Level Indianapolis Center
Wed 09:39:40 PM 39.0897 -81.1050 260° West 353 406 34,000  Level Indianapolis Center
Wed 09:40:41 PM 39.0700 -81.2267 258° West 350 403 34,000  Level Indianapolis Center
Wed 09:41:42 PM 39.0481 -81.3508 257° West 357 411 34,000  Level Indianapolis Center
Wed 09:42:44 PM 39.0258 -81.4783 257° West 367 422 34,000  Level Indianapolis Center
Wed 09:43:45 PM 39.0025 -81.6108 257° West 382 440 34,000  Level Indianapolis Center
Wed 09:44:46 PM 38.9728 -81.7764 257° West 400 460 34,000  Level Indianapolis Center
Wed 09:45:48 PM 38.9492 -81.9083 257° West 386 444 34,000  Level Indianapolis Center
Wed 09:46:49 PM 38.9239 -82.0425 256° West 388 447 34,000  Level Indianapolis Center
Wed 09:47:50 PM 38.8992 -82.1833 257° West 403 464 34,000  Level Indianapolis Center
Wed 09:48:51 PM 38.8725 -82.3236 256° West 407 468 34,000  Level Indianapolis Center
Wed 09:49:53 PM 38.8478 -82.4622 257° West 402 463 34,000  Level Indianapolis Center
Wed 09:50:54 PM 38.8211 -82.6000 256° West 400 460 34,000  Level Indianapolis Center
Wed 09:51:55 PM 38.7944 -82.7378 256° West 399 459 34,000  Level Indianapolis Center
Wed 09:52:56 PM 38.7678 -82.8775 256° West 404 465 34,000 -341 Level Indianapolis Center
Wed 09:53:58 PM 38.7361 -83.0447 256° West 403 464 33,300 -1,220 Descending Indianapolis Center
Wed 09:54:59 PM 38.7100 -83.1797 256° West 397 457 31,500 -1,525 Descending Indianapolis Center
Wed 09:56:00 PM 38.6825 -83.3206 256° West 403 464 30,200 -1,131 Descending Indianapolis Center
Wed 09:57:01 PM 38.6536 -83.4664 256° West 415 478 29,200 -1,024 Descending Indianapolis Center
Wed 09:58:03 PM 38.6264 -83.6083 256° West 433 498 28,100 -1,610 Descending Indianapolis Center
Wed 09:59:04 PM 38.5919 -83.7811 256° West 433 498 25,900 -2,459 Descending Indianapolis Center
Wed 10:00:05 PM 38.5622 -83.9308 256° West 436 502 23,100 -2,557 Descending Indianapolis Center
Wed 10:01:06 PM 38.5339 -84.0731 256° West 417 480 20,700 -1,525 Descending Indianapolis Center
Wed 10:02:07 PM 38.5042 -84.2147 255° West 415 478 20,000 -344 Descending Indianapolis Center
Wed 10:03:08 PM 38.4753 -84.3561 255° West 411 473 20,000 -984 Level Indianapolis Center
Wed 10:04:09 PM 38.4481 -84.4897 255° West 395 455 18,000 -2,244 Descending Indianapolis Center
Wed 10:05:11 PM 38.4219 -84.6139 255° West 367 422 15,400 -2,244 Descending Indianapolis Center
Wed 10:06:12 PM 38.3964 -84.7392 255° West 365 420 13,400 -1,672 Descending Indianapolis Center
Wed 10:07:13 PM 38.3697 -84.8678 255° West 374 430 12,000 -1,131 Descending Indianapolis Center
Wed 10:08:14 PM 38.3403 -85.0064 255° West 352 405 11,100 -492 Descending Indianapolis Center
Wed 10:09:15 PM 38.3144 -85.1264 255° West 351 404 11,000 -148 Descending Indianapolis Center
Wed 10:10:16 PM 38.3008 -85.2328 261° West 363 418 10,800 -738 Descending Indianapolis Center
Wed 10:11:17 PM 38.2986 -85.3561 269° West 292 336 9,500 -1,366 Descending Indianapolis Center
Wed 10:12:19 PM 38.2953 -85.4525 268° West 276 318 8,000 -1,610 Descending Indianapolis Center
Wed 10:13:20 PM 38.2925 -85.5447 268° West 263 303 6,200 -1,770 Descending Indianapolis Center
Wed 10:14:21 PM 38.2894 -85.6303 267° West 248 285 4,400 -1,525 Descending Indianapolis Center
Wed 10:15:22 PM 38.2825 -85.7097 264° West 232 267 3,100 -1,279 Descending Indianapolis Center
Wed 10:16:23 PM 38.2439 -85.7489 219° Southwest 211 243 1,800 -1,279 Descending Indianapolis Center

Login

Don't have an account? Register now (free) for customized features, flight alerts, and more!